Time;durP1;ratioP1;P1;durP2;ratioP2;P2;SDS_P1;SDS_P2;PMS_P1;PMS_P2;Temp;Humidity;BMP_temperature;BMP_pressure;BME280_temperature;BME280_humidity;BME280_pressure;Samples;Min_cycle;Max_cycle;Signal;HPM_P1;HPM_P2
2023/09/23 00:01:14;;;;;;;;;5.67;5.67;;;;;15.18;63.63;100785.63;5056923;28;45275;-40
2023/09/23 00:03:41;;;;;;;;;5.33;2.00;;;;;15.06;63.85;100770.94;5057105;28;45461;-41
2023/09/23 00:06:08;;;;;;;;;26.00;23.33;;;;;15.16;63.77;100784.09;5056655;28;46193;-39
2023/09/23 00:08:34;;;;;;;;;9.33;5.33;;;;;15.14;63.75;100792.34;5055760;28;45369;-40
2023/09/23 00:10:59;;;;;;;;;2.67;1.00;;;;;15.12;63.96;100794.34;5057076;28;45409;-40
2023/09/23 00:13:25;;;;;;;;;0.67;0.67;;;;;15.11;63.76;100799.88;5056748;28;45405;-41
2023/09/23 00:15:50;;;;;;;;;0.67;0.67;;;;;15.01;63.89;100783.19;5056349;28;45835;-41
2023/09/23 00:18:17;;;;;;;;;4.00;0.67;;;;;15.07;63.87;100806.59;5056452;28;45403;-39
2023/09/23 00:20:46;;;;;;;;;1.67;1.67;;;;;15.05;63.99;100796.06;5056148;28;45257;-39
2023/09/23 00:23:12;;;;;;;;;0.33;0.33;;;;;15.07;64.19;100807.44;5056827;28;45788;-51
2023/09/23 00:25:38;;;;;;;;;1.67;1.00;;;;;15.07;63.99;100810.09;5055939;28;46241;-46
2023/09/23 00:28:10;;;;;;;;;1.67;0.00;;;;;15.06;64.14;100805.75;5055410;28;45636;-46
2023/09/23 00:30:36;;;;;;;;;2.00;0.00;;;;;15.02;64.53;100803.63;5056089;28;45403;-44
2023/09/23 00:33:01;;;;;;;;;2.33;0.00;;;;;14.98;64.50;100816.50;5056211;28;45408;-42
2023/09/23 00:35:28;;;;;;;;;0.00;0.00;;;;;14.89;64.87;100810.34;5055859;28;46010;-39
2023/09/23 00:37:53;;;;;;;;;1.00;0.00;;;;;14.89;64.79;100817.56;5055965;28;45438;-39
2023/09/23 00:40:27;;;;;;;;;2.00;0.00;;;;;14.91;64.56;100823.56;5056111;28;45323;-40
2023/09/23 00:42:56;;;;;;;;;3.00;0.00;;;;;14.86;65.14;100818.72;5056282;28;45384;-39
2023/09/23 00:45:22;;;;;;;;;2.00;0.00;;;;;14.81;65.22;100818.41;5055655;28;46305;-42
2023/09/23 00:47:48;;;;;;;;;2.67;0.67;;;;;14.81;64.81;100821.09;5055653;28;45410;-38
2023/09/23 00:50:18;;;;;;;;;2.00;1.00;;;;;14.78;65.34;100809.88;5055756;28;45413;-41
2023/09/23 00:52:47;;;;;;;;;1.00;1.00;;;;;14.77;65.47;100814.41;5056053;28;45421;-40
2023/09/23 00:55:12;;;;;;;;;1.00;0.00;;;;;14.75;65.25;100821.81;5055416;28;45470;-39
2023/09/23 00:57:41;;;;;;;;;2.00;1.00;;;;;14.74;65.42;100820.09;5054680;28;45367;-41
2023/09/23 01:00:11;;;;;;;;;1.00;1.00;;;;;14.69;65.65;100815.28;5055648;28;45541;-40
2023/09/23 01:02:37;;;;;;;;;4.33;1.00;;;;;14.70;65.40;100821.44;5055857;28;45407;-40
2023/09/23 01:05:04;;;;;;;;;0.33;0.33;;;;;14.68;65.59;100815.44;5055248;28;46003;-42
2023/09/23 01:07:31;;;;;;;;;2.00;0.00;;;;;14.68;65.59;100816.28;5055837;28;45482;-40
2023/09/23 01:09:56;;;;;;;;;1.00;1.00;;;;;14.67;65.70;100819.16;5056063;28;45571;-43
2023/09/23 01:12:22;;;;;;;;;3.00;0.33;;;;;14.66;65.86;100812.97;5055998;28;45407;-40
2023/09/23 01:14:48;;;;;;;;;0.00;0.00;;;;;14.67;66.02;100821.81;5055527;28;46303;-40
2023/09/23 01:17:15;;;;;;;;;2.33;1.00;;;;;14.68;65.88;100820.81;5055327;28;45393;-39
2023/09/23 01:19:41;;;;;;;;;2.33;1.00;;;;;14.65;65.80;100821.97;5054776;28;45357;-39
2023/09/23 01:22:07;;;;;;;;;2.33;1.00;;;;;14.63;66.10;100815.97;5055540;28;45548;-46
2023/09/23 01:24:34;;;;;;;;;1.67;0.67;;;;;14.67;65.90;100819.97;5055349;28;47239;-41
2023/09/23 01:26:59;;;;;;;;;2.00;0.67;;;;;14.68;66.07;100824.31;5055388;28;45210;-41
2023/09/23 01:29:26;;;;;;;;;2.00;1.00;;;;;14.73;65.81;100823.78;5055416;28;45351;-39
2023/09/23 01:31:57;;;;;;;;;2.00;0.00;;;;;14.77;65.84;100825.13;5056194;28;45331;-41
2023/09/23 01:34:23;;;;;;;;;2.00;0.00;;;;;14.79;65.62;100827.63;5055512;28;46564;-41
2023/09/23 01:36:48;;;;;;;;;0.00;0.00;;;;;14.79;65.50;100841.88;5055552;28;45417;-41
2023/09/23 01:39:14;;;;;;;;;2.00;1.00;;;;;14.81;65.58;100836.34;5056296;28;45411;-41
2023/09/23 01:41:40;;;;;;;;;1.00;0.00;;;;;14.83;65.70;100829.81;5059571;28;45483;-39
2023/09/23 01:44:06;;;;;;;;;0.33;0.00;;;;;14.84;65.46;100833.31;5058952;28;46364;-39
2023/09/23 01:46:33;;;;;;;;;0.33;0.33;;;;;14.82;65.40;100836.16;5058879;28;45428;-40
2023/09/23 01:49:00;;;;;;;;;0.33;0.33;;;;;14.77;65.42;100821.63;5059397;28;45438;-42
2023/09/23 01:51:25;;;;;;;;;3.00;0.00;;;;;14.77;65.79;100843.03;5059300;28;45447;-40
2023/09/23 01:53:51;;;;;;;;;0.00;0.00;;;;;14.74;65.93;100836.16;5059005;28;46399;-41
2023/09/23 01:56:16;;;;;;;;;1.00;0.00;;;;;14.69;65.93;100833.19;5058571;28;50282;-43
2023/09/23 01:58:41;;;;;;;;;0.00;0.00;;;;;14.69;66.05;100841.22;5059110;28;45334;-39
2023/09/23 02:01:07;;;;;;;;;0.00;0.00;;;;;14.66;66.12;100853.13;5059145;28;45216;-41
2023/09/23 02:03:33;;;;;;;;;0.00;0.00;;;;;14.65;66.00;100840.72;5058697;28;46505;-41
2023/09/23 02:05:59;;;;;;;;;1.00;0.00;;;;;14.64;66.13;100843.56;5058967;28;45417;-40
2023/09/23 02:08:24;;;;;;;;;0.33;0.00;;;;;14.60;65.74;100851.09;5058891;28;45430;-40
2023/09/23 02:10:51;;;;;;;;;0.00;0.00;;;;;14.60;66.18;100848.44;5059130;28;45289;-40
2023/09/23 02:13:18;;;;;;;;;0.67;0.67;;;;;14.58;66.41;100857.63;5058567;28;45361;-41
2023/09/23 02:15:44;;;;;;;;;0.00;0.00;;;;;14.55;65.87;100864.16;5058250;28;45303;-40
2023/09/23 02:18:10;;;;;;;;;2.00;0.33;;;;;14.59;65.99;100870.03;5058663;28;45284;-42
2023/09/23 02:20:35;;;;;;;;;2.00;1.00;;;;;14.59;66.24;100865.50;5058790;28;45360;-43
2023/09/23 02:23:03;;;;;;;;;2.00;0.67;;;;;14.60;66.04;100864.50;5058927;28;47026;-41
2023/09/23 02:25:28;;;;;;;;;0.00;0.00;;;;;14.62;66.10;100869.66;5058487;28;45376;-39
2023/09/23 02:27:55;;;;;;;;;0.00;0.00;;;;;14.60;66.19;100860.97;5058628;28;45350;-41
2023/09/23 02:30:21;;;;;;;;;0.67;0.00;;;;;14.65;66.07;100874.69;5057400;28;45405;-41
2023/09/23 02:32:47;;;;;;;;;1.00;1.00;;;;;14.65;66.14;100877.38;5058436;28;47194;-39
2023/09/23 02:35:15;;;;;;;;;1.00;1.00;;;;;14.67;65.83;100878.03;5057925;28;45423;-39
2023/09/23 02:37:50;;;;;;;;;2.33;1.00;;;;;14.61;65.98;100882.22;5058611;28;45372;-42
2023/09/23 02:40:17;;;;;;;;;1.00;1.00;;;;;14.66;66.14;100882.56;5058380;28;45483;-41
2023/09/23 02:42:45;;;;;;;;;1.00;0.00;;;;;14.63;65.98;100880.22;5057824;28;45358;-41
2023/09/23 02:45:13;;;;;;;;;0.00;0.00;;;;;14.65;65.97;100893.44;5058039;28;45363;-47
2023/09/23 02:47:40;;;;;;;;;0.00;0.00;;;;;14.65;65.82;100890.75;5058173;28;45324;-42
2023/09/23 02:50:10;;;;;;;;;3.00;1.67;;;;;14.65;66.11;100893.44;5057772;28;45403;-44
2023/09/23 02:52:40;;;;;;;;;1.00;0.00;;;;;14.63;66.00;100893.59;5057982;28;46092;-40
2023/09/23 02:55:12;;;;;;;;;0.00;0.00;;;;;14.59;66.07;100894.94;5057759;28;45427;-40
2023/09/23 02:57:41;;;;;;;;;0.33;0.33;;;;;14.56;66.15;100897.97;5058195;28;45394;-46
2023/09/23 03:00:16;;;;;;;;;2.00;2.00;;;;;14.51;66.30;100905.66;5058347;28;45383;-41
2023/09/23 03:02:45;;;;;;;;;1.67;0.00;;;;;14.51;66.49;100899.47;5057436;28;46258;-49
2023/09/23 03:05:18;;;;;;;;;2.67;0.00;;;;;14.50;66.18;100904.00;5058267;28;45221;-40
2023/09/23 03:07:48;;;;;;;;;1.33;0.00;;;;;14.45;66.35;100898.25;5058102;28;45301;-41
2023/09/23 03:10:18;;;;;;;;;2.00;1.00;;;;;14.42;66.55;100907.47;5057997;28;45351;-39
2023/09/23 03:12:51;;;;;;;;;2.00;0.67;;;;;14.38;66.59;100906.16;5057545;28;46237;-40
2023/09/23 03:15:19;;;;;;;;;0.00;0.00;;;;;14.31;67.16;100906.97;5057415;28;45364;-43
2023/09/23 03:17:50;;;;;;;;;1.00;1.00;;;;;14.22;66.66;100901.63;5057178;28;45419;-40
2023/09/23 03:20:24;;;;;;;;;2.33;1.00;;;;;14.24;66.74;100920.16;5056876;28;45320;-45
2023/09/23 03:22:50;;;;;;;;;4.00;0.00;;;;;14.15;66.62;100916.66;5057306;28;46510;-43
2023/09/23 03:25:18;;;;;;;;;0.00;0.00;;;;;14.14;67.20;100936.38;5057352;28;45410;-40
2023/09/23 03:27:43;;;;;;;;;1.00;1.00;;;;;14.10;67.44;100932.38;5057688;28;45292;-43
2023/09/23 03:30:12;;;;;;;;;1.00;1.00;;;;;14.08;67.21;100942.41;5057728;28;45227;-46
2023/09/23 03:32:38;;;;;;;;;2.00;0.67;;;;;14.06;67.45;100940.88;5057301;28;46949;-46
2023/09/23 03:35:04;;;;;;;;;0.67;0.67;;;;;13.99;67.29;100940.72;5057183;28;45323;-41
2023/09/23 03:37:29;;;;;;;;;3.00;1.00;;;;;13.99;67.64;100948.75;5057452;28;45443;-53
2023/09/23 03:39:55;;;;;;;;;0.00;0.00;;;;;13.97;67.68;100948.91;5057417;28;45529;-41
2023/09/23 03:42:22;;;;;;;;;0.00;0.00;;;;;13.97;67.78;100951.56;5057252;28;45379;-41
2023/09/23 03:44:47;;;;;;;;;0.67;0.67;;;;;13.96;67.90;100957.09;5057282;28;45257;-50
2023/09/23 03:47:12;;;;;;;;;1.67;1.00;;;;;13.89;67.66;100940.84;5057222;28;45414;-49
2023/09/23 03:49:37;;;;;;;;;2.67;0.00;;;;;13.95;67.71;100953.59;5057529;28;45332;-48
2023/09/23 03:52:05;;;;;;;;;1.00;1.00;;;;;13.94;67.77;100954.56;5056879;28;50548;-40
2023/09/23 03:54:33;;;;;;;;;2.67;1.00;;;;;13.93;67.86;100958.25;5056930;28;45294;-42
2023/09/23 03:56:58;;;;;;;;;1.00;1.00;;;;;13.90;67.95;100949.72;5057320;28;45370;-42
2023/09/23 03:59:23;;;;;;;;;2.00;1.00;;;;;13.92;67.87;100969.94;5057412;28;45394;-43
2023/09/23 04:01:50;;;;;;;;;1.33;1.33;;;;;13.90;67.97;100957.72;5056022;28;45404;-41
2023/09/23 04:04:17;;;;;;;;;3.00;0.00;;;;;13.89;67.51;100959.56;5057478;28;45386;-42
2023/09/23 04:06:43;;;;;;;;;1.00;1.00;;;;;13.87;67.64;100963.44;5055825;28;45417;-46
2023/09/23 04:09:11;;;;;;;;;2.00;0.00;;;;;13.81;68.21;100956.03;5057227;28;45431;-44
2023/09/23 04:11:37;;;;;;;;;0.00;0.00;;;;;13.81;68.02;100964.06;5056964;28;46243;-48
2023/09/23 04:14:02;;;;;;;;;1.00;1.00;;;;;13.79;68.22;100966.91;5056964;28;45305;-49
2023/09/23 04:16:28;;;;;;;;;2.33;0.33;;;;;13.62;68.50;100944.63;5057291;28;45346;-42
2023/09/23 04:18:53;;;;;;;;;2.00;0.00;;;;;13.76;68.54;100969.06;5038951;28;45478;-40
2023/09/23 04:21:21;;;;;;;;;1.00;1.00;;;;;13.74;68.47;100971.91;5056809;28;46157;-42
2023/09/23 04:23:48;;;;;;;;;2.67;1.00;;;;;13.72;68.52;100973.88;5056723;28;45451;-40
2023/09/23 04:26:14;;;;;;;;;3.00;0.00;;;;;13.70;68.52;100976.72;5038754;28;45425;-40
2023/09/23 04:28:39;;;;;;;;;2.00;0.00;;;;;13.69;68.80;100975.06;5057007;28;45232;-39
2023/09/23 04:31:06;;;;;;;;;4.00;0.33;;;;;13.67;68.77;100982.41;5038296;28;46042;-43
2023/09/23 04:33:32;;;;;;;;;0.67;0.00;;;;;13.66;68.59;100990.59;5056760;28;46177;-42
2023/09/23 04:35:58;;;;;;;;;1.33;0.00;;;;;13.65;68.85;100989.75;5038827;28;45822;-41
2023/09/23 04:38:24;;;;;;;;;2.00;0.33;;;;;13.64;68.86;100989.91;5056908;28;45471;-44
2023/09/23 04:40:50;;;;;;;;;2.33;1.00;;;;;13.62;68.77;100990.06;5055808;28;46307;-42
2023/09/23 04:43:25;;;;;;;;;1.00;1.00;;;;;13.61;68.53;100985.72;5056647;28;45470;-41
2023/09/23 04:45:50;;;;;;;;;3.33;0.67;;;;;13.57;68.74;100992.38;5056557;28;45501;-47
2023/09/23 04:48:20;;;;;;;;;2.00;0.00;;;;;13.54;69.03;100992.69;5056665;28;45589;-40
2023/09/23 04:50:46;;;;;;;;;4.00;0.00;;;;;13.60;68.98;101009.94;5056261;28;47086;-45
2023/09/23 04:53:11;;;;;;;;;2.00;1.00;;;;;13.58;69.28;101010.09;5055358;28;45693;-40
2023/09/23 04:55:37;;;;;;;;;0.00;0.00;;;;;13.58;68.84;101020.78;5055909;28;45427;-42
2023/09/23 04:58:02;;;;;;;;;6.67;1.00;;;;;13.59;68.93;101030.47;5056635;28;45333;-40
2023/09/23 05:00:32;;;;;;;;;3.33;0.33;;;;;13.58;68.96;101023.47;5056371;28;45635;-46
2023/09/23 05:02:58;;;;;;;;;2.00;0.00;;;;;13.59;69.27;101021.63;5056257;28;45407;-40
2023/09/23 05:05:23;;;;;;;;;1.00;0.00;;;;;13.57;68.84;101027.13;5056370;28;45230;-46
2023/09/23 05:07:48;;;;;;;;;1.00;1.00;;;;;13.58;69.26;101031.47;5056579;28;45307;-45
2023/09/23 05:10:14;;;;;;;;;2.00;1.33;;;;;13.58;69.11;101039.50;5055921;28;46214;-47
2023/09/23 05:12:40;;;;;;;;;1.67;1.00;;;;;13.58;69.06;101044.00;5056194;28;45241;-39
2023/09/23 05:15:09;;;;;;;;;2.00;0.00;;;;;13.57;68.97;101044.97;5056452;28;46090;-40
2023/09/23 05:17:35;;;;;;;;;1.00;1.00;;;;;13.56;68.89;101048.66;5056214;28;45494;-40
2023/09/23 05:20:04;;;;;;;;;1.33;0.00;;;;;13.53;68.82;101046.31;5056051;28;45816;-40
2023/09/23 05:22:31;;;;;;;;;1.00;1.00;;;;;13.53;68.99;101049.84;5055606;28;45289;-42
2023/09/23 05:24:57;;;;;;;;;2.00;2.00;;;;;13.51;69.05;101049.13;5056529;28;45701;-43
2023/09/23 05:27:23;;;;;;;;;1.67;1.00;;;;;13.50;69.31;101060.84;5056259;28;45399;-45
2023/09/23 05:29:50;;;;;;;;;2.67;2.00;;;;;13.48;69.19;101058.34;5055808;28;45434;-45
2023/09/23 05:32:16;;;;;;;;;2.00;0.33;;;;;13.48;69.11;101054.78;5055760;28;45494;-48
2023/09/23 05:34:42;;;;;;;;;3.00;1.00;;;;;13.46;69.14;101060.31;5055889;28;45319;-51
2023/09/23 05:37:11;;;;;;;;;2.33;1.00;;;;;13.44;69.04;101062.31;5056185;28;45360;-41
2023/09/23 05:39:37;;;;;;;;;3.67;0.00;;;;;13.44;69.33;101069.47;5054278;28;46966;-43
2023/09/23 05:42:02;;;;;;;;;0.67;0.00;;;;;13.46;69.49;101079.00;5055957;28;46058;-40
2023/09/23 05:44:28;;;;;;;;;1.00;1.00;;;;;13.43;69.17;101081.16;5056013;28;45421;-44
2023/09/23 05:46:53;;;;;;;;;0.67;0.67;;;;;13.45;69.32;101103.22;5055818;28;45358;-45
2023/09/23 05:49:19;;;;;;;;;2.33;2.00;;;;;13.45;69.39;101097.88;5037525;28;46045;-41
2023/09/23 05:51:45;;;;;;;;;3.33;0.67;;;;;13.44;69.51;101106.88;5055848;28;45446;-39
2023/09/23 05:54:11;;;;;;;;;3.67;1.67;;;;;13.39;69.71;101104.69;5054939;28;45325;-53
2023/09/23 05:56:36;;;;;;;;;1.00;1.00;;;;;13.41;69.24;101105.38;5055923;28;45395;-51
2023/09/23 05:59:01;;;;;;;;;0.00;0.00;;;;;13.43;69.34;101113.22;5055538;28;46066;-49
2023/09/23 06:01:27;;;;;;;;;1.00;1.00;;;;;13.45;69.35;101116.59;5055566;28;45471;-43
2023/09/23 06:03:52;;;;;;;;;1.00;1.00;;;;;13.46;69.26;101119.09;5037485;28;45838;-40
2023/09/23 06:06:18;;;;;;;;;1.00;1.00;;;;;13.44;69.07;101118.44;5056139;28;45658;-43
2023/09/23 06:08:47;;;;;;;;;1.00;1.00;;;;;13.45;69.03;101117.44;5055452;28;46193;-41
2023/09/23 06:11:14;;;;;;;;;2.00;1.00;;;;;13.49;68.99;101125.97;5055391;28;45414;-44
2023/09/23 06:13:40;;;;;;;;;2.00;2.00;;;;;13.51;68.81;101132.00;5054438;28;45434;-44
2023/09/23 06:16:05;;;;;;;;;0.00;0.00;;;;;13.49;68.64;101134.00;5055428;28;45446;-41
2023/09/23 06:18:33;;;;;;;;;0.67;0.67;;;;;13.53;69.03;101146.06;5055293;28;45331;-43
2023/09/23 06:21:02;;;;;;;;;1.00;1.00;;;;;13.55;68.76;101149.41;5055202;28;45454;-43
2023/09/23 06:23:28;;;;;;;;;1.00;1.00;;;;;13.58;68.41;101151.78;5055672;28;45413;-42
2023/09/23 06:25:55;;;;;;;;;2.67;2.00;;;;;13.60;68.70;101156.94;5057057;28;45294;-51
2023/09/23 06:28:22;;;;;;;;;1.33;1.00;;;;;13.61;68.50;101151.47;5057603;28;46307;-44
2023/09/23 06:30:47;;;;;;;;;1.00;1.00;;;;;13.62;68.68;101153.13;5059178;28;45430;-44
2023/09/23 06:33:12;;;;;;;;;1.00;1.00;;;;;13.66;68.67;101164.34;5057918;28;45966;-43
2023/09/23 06:35:38;;;;;;;;;0.33;0.33;;;;;13.70;68.57;101163.88;5058500;28;45353;-41
2023/09/23 06:38:03;;;;;;;;;2.00;0.33;;;;;13.74;68.23;101177.78;5058415;28;45971;-38
2023/09/23 06:40:28;;;;;;;;;0.00;0.00;;;;;13.77;67.98;101179.28;5058813;28;45296;-42
2023/09/23 06:42:54;;;;;;;;;1.33;1.33;;;;;13.79;68.10;101166.63;5058696;28;45363;-48
2023/09/23 06:45:19;;;;;;;;;1.33;1.00;;;;;13.82;67.69;101180.50;5058495;28;45305;-41
2023/09/23 06:47:45;;;;;;;;;1.00;0.00;;;;;13.86;67.64;101183.69;5058099;28;46679;-41
2023/09/23 06:50:10;;;;;;;;;1.00;1.00;;;;;13.89;67.72;101180.72;5058176;28;45679;-41
2023/09/23 06:52:36;;;;;;;;;1.00;1.00;;;;;13.92;67.83;101186.59;5057553;28;45347;-42
2023/09/23 06:55:01;;;;;;;;;1.00;1.00;;;;;13.95;67.95;101180.94;5058770;28;45166;-45
2023/09/23 06:57:26;;;;;;;;;3.00;1.00;;;;;14.03;67.56;101187.31;5058206;28;45893;-42
2023/09/23 06:59:52;;;;;;;;;3.33;1.00;;;;;14.03;67.42;101184.63;5057855;28;52228;-41
2023/09/23 07:02:17;;;;;;;;;0.67;0.67;;;;;13.92;67.13;101172.38;5058000;28;48799;-42
2023/09/23 07:04:42;;;;;;;;;9.00;2.00;;;;;14.10;67.28;101199.06;5058297;28;45876;-47
2023/09/23 07:07:08;;;;;;;;;1.00;1.00;;;;;14.14;67.17;101209.28;5057918;28;45484;-46
2023/09/23 07:09:33;;;;;;;;;1.00;1.00;;;;;14.17;67.08;101203.63;5056831;28;45577;-48
2023/09/23 07:11:58;;;;;;;;;1.00;1.00;;;;;14.20;66.79;101208.66;5057627;28;48143;-49
2023/09/23 07:14:24;;;;;;;;;1.00;1.00;;;;;14.28;66.49;101217.72;5058124;28;45388;-51
2023/09/23 07:16:49;;;;;;;;;2.33;1.00;;;;;14.32;66.62;101217.22;5057761;28;47572;-51
2023/09/23 07:19:14;;;;;;;;;1.00;1.00;;;;;14.37;66.57;101222.97;5057780;28;45348;-51
2023/09/23 07:21:40;;;;;;;;;0.00;0.00;;;;;14.41;66.16;101223.47;5058043;28;45427;-48
2023/09/23 07:24:05;;;;;;;;;2.67;2.67;;;;;14.45;66.34;101227.50;5057797;28;45404;-50
2023/09/23 07:26:30;;;;;;;;;2.00;2.00;;;;;14.51;66.20;101234.09;5057931;28;45396;-50
2023/09/23 07:28:56;;;;;;;;;1.00;0.00;;;;;14.58;65.83;101235.97;5057684;28;45473;-50
2023/09/23 07:31:22;;;;;;;;;1.00;1.00;;;;;14.62;65.68;101239.16;5050603;28;45332;-40
2023/09/23 07:33:47;;;;;;;;;1.67;1.33;;;;;14.69;65.70;101237.50;5055052;28;45339;-42
2023/09/23 07:36:14;;;;;;;;;0.33;0.33;;;;;14.75;65.51;101249.41;5054891;28;46029;-40
2023/09/23 07:38:40;;;;;;;;;4.00;2.00;;;;;14.77;65.36;101248.25;5055957;28;45401;-45
2023/09/23 07:41:06;;;;;;;;;3.67;1.00;;;;;14.83;65.49;101252.13;5057193;28;45853;-41
2023/09/23 07:43:32;;;;;;;;;6.33;1.00;;;;;14.86;64.95;101243.78;5056565;28;45380;-44
2023/09/23 07:45:59;;;;;;;;;3.00;2.00;;;;;14.94;64.83;101247.31;5056980;28;46501;-43
2023/09/23 07:48:25;;;;;;;;;3.00;1.00;;;;;15.02;65.01;101256.38;5056907;28;45380;-44
2023/09/23 07:50:53;;;;;;;;;2.33;1.00;;;;;15.09;64.70;101255.56;5057029;28;45296;-44
2023/09/23 07:53:19;;;;;;;;;2.33;2.33;;;;;15.14;64.65;101266.63;5057611;28;45307;-46
2023/09/23 07:55:44;;;;;;;;;2.00;1.00;;;;;15.21;64.40;101264.13;5057426;28;45293;-44
2023/09/23 07:58:09;;;;;;;;;3.00;1.67;;;;;15.30;64.36;101275.72;5039048;28;45455;-42
2023/09/23 08:00:35;;;;;;;;;5.33;2.00;;;;;15.36;63.64;101275.03;5057057;28;45283;-46
2023/09/23 08:03:01;;;;;;;;;2.33;2.00;;;;;15.46;63.69;101279.28;5057497;28;45260;-41
2023/09/23 08:05:26;;;;;;;;;3.00;1.67;;;;;15.53;63.60;101281.28;5056543;28;46324;-45
2023/09/23 08:07:52;;;;;;;;;3.00;2.00;;;;;15.70;63.04;101291.03;5056209;28;45299;-41
2023/09/23 08:10:17;;;;;;;;;2.33;2.00;;;;;15.82;62.63;101294.22;5055531;28;45490;-42
2023/09/23 08:12:46;;;;;;;;;2.00;0.67;;;;;15.98;62.58;101302.28;5056082;28;45759;-44
2023/09/23 08:15:11;;;;;;;;;2.67;2.00;;;;;16.10;61.80;101289.38;5056328;28;46243;-40
2023/09/23 08:17:40;;;;;;;;;3.00;3.00;;;;;16.38;60.96;101287.13;5056143;28;45460;-40
2023/09/23 08:20:17;;;;;;;;;3.33;2.00;;;;;16.96;59.70;101297.53;5055789;28;45405;-41
2023/09/23 08:22:44;;;;;;;;;2.25;2.25;;;;;17.64;58.33;101328.22;5056617;28;45362;-43
2023/09/23 08:25:10;;;;;;;;;4.75;1.75;;;;;18.47;56.27;101323.88;5056197;28;46268;-39
2023/09/23 08:27:36;;;;;;;;;3.50;1.25;;;;;18.78;54.73;101329.09;5056699;28;45414;-41
2023/09/23 08:30:01;;;;;;;;;2.75;1.25;;;;;19.02;53.79;101336.06;5056627;28;45490;-41
2023/09/23 08:32:26;;;;;;;;;2.75;1.25;;;;;19.43;53.46;101338.22;5056811;28;45462;-43
2023/09/23 08:34:52;;;;;;;;;2.25;2.25;;;;;20.32;51.96;101343.25;5055984;28;45340;-43
2023/09/23 08:37:17;;;;;;;;;6.00;2.50;;;;;21.50;49.09;101323.31;5056363;28;45482;-41
2023/09/23 08:39:42;;;;;;;;;2.50;2.50;;;;;21.63;49.20;101336.03;5056730;28;45380;-39
2023/09/23 08:42:08;;;;;;;;;2.00;2.00;;;;;21.37;48.06;101342.22;5056274;28;45353;-41
2023/09/23 08:44:35;;;;;;;;;2.50;2.25;;;;;21.13;48.57;101349.78;5038185;28;47128;-39
2023/09/23 08:47:00;;;;;;;;;3.00;3.00;;;;;21.02;48.65;101341.41;5055880;28;45298;-42
2023/09/23 08:49:26;;;;;;;;;3.50;1.25;;;;;20.94;50.41;101353.22;5036779;28;45368;-41
2023/09/23 08:51:55;;;;;;;;;3.75;2.25;;;;;20.74;49.80;101355.84;5056422;28;45234;-39
2023/09/23 08:54:26;;;;;;;;;2.80;0.60;;;;;20.63;50.03;101351.81;5055733;28;46143;-41
2023/09/23 08:56:52;;;;;;;;;5.00;2.00;;;;;20.55;49.75;101362.78;5055996;28;45502;-41
2023/09/23 08:59:18;;;;;;;;;4.20;1.00;;;;;20.56;50.35;101366.31;5056219;28;45332;-39
2023/09/23 09:01:44;;;;;;;;;2.75;2.75;;;;;20.68;49.38;101357.44;5055953;28;45503;-41
2023/09/23 09:04:16;;;;;;;;;2.50;1.00;;;;;21.04;49.08;101358.28;5054656;28;46091;-39
2023/09/23 09:06:52;;;;;;;;;2.00;2.00;;;;;21.48;48.12;101357.84;5055864;28;45453;-40
2023/09/23 09:09:18;;;;;;;;;1.00;1.00;;;;;22.14;46.72;101354.47;5055967;28;45434;-41
2023/09/23 09:11:51;;;;;;;;;1.50;1.50;;;;;22.50;46.20;101364.88;5056136;28;45450;-39
2023/09/23 09:14:17;;;;;;;;;2.40;2.00;;;;;22.60;45.22;101370.69;5055381;28;46096;-40
2023/09/23 09:16:42;;;;;;;;;1.00;1.00;;;;;22.58;44.97;101374.66;5054204;28;45486;-42
2023/09/23 09:19:08;;;;;;;;;1.75;1.50;;;;;22.62;46.14;101379.44;5054769;28;45458;-38
2023/09/23 09:21:34;;;;;;;;;2.00;1.00;;;;;22.69;44.86;101381.34;5055577;28;45426;-44
2023/09/23 09:24:02;;;;;;;;;1.00;0.80;;;;;22.92;44.36;101376.28;5054032;28;46220;-42
2023/09/23 09:26:28;;;;;;;;;1.00;1.00;;;;;23.11;45.07;101347.44;5055034;28;45316;-45
2023/09/23 09:28:53;;;;;;;;;3.75;1.25;;;;;23.51;43.35;101358.97;5055023;28;45460;-39
2023/09/23 09:31:18;;;;;;;;;4.50;1.00;;;;;23.92;42.62;101360.38;5037003;28;45337;-42
2023/09/23 09:33:47;;;;;;;;;2.00;2.00;;;;;24.28;44.07;101358.84;5037058;28;45494;-39
2023/09/23 09:36:19;;;;;;;;;1.00;1.00;;;;;24.68;43.89;101363.94;5054331;28;45532;-42
2023/09/23 09:38:50;;;;;;;;;1.60;0.80;;;;;25.02;41.73;101371.50;5052490;28;45331;-40
2023/09/23 09:41:21;;;;;;;;;1.60;1.20;;;;;25.39;41.44;101358.72;5035732;28;45384;-45
2023/09/23 09:43:48;;;;;;;;;4.00;2.00;;;;;25.85;40.08;101368.16;5035287;28;46084;-45
2023/09/23 09:46:15;;;;;;;;;1.60;1.60;;;;;26.26;38.25;101366.47;5035238;28;45438;-45
2023/09/23 09:48:43;;;;;;;;;2.60;1.00;;;;;26.67;38.22;101370.16;5035255;28;45290;-41
2023/09/23 09:51:13;;;;;;;;;1.00;1.00;;;;;27.11;37.42;101365.97;5041647;28;45333;-40
2023/09/23 09:53:40;;;;;;;;;1.00;1.00;;;;;27.68;37.55;101367.06;5054013;28;46241;-43
2023/09/23 09:56:07;;;;;;;;;1.20;1.20;;;;;28.07;35.17;101357.97;5055046;28;45415;-46
2023/09/23 09:58:38;;;;;;;;;1.00;1.00;;;;;28.57;35.46;101362.59;5055886;28;45440;-40
2023/09/23 10:01:08;;;;;;;;;0.80;0.80;;;;;29.08;34.44;101362.50;5057706;28;45542;-40
2023/09/23 10:03:36;;;;;;;;;4.20;1.00;;;;;29.64;34.37;101376.03;5058966;28;46365;-45
2023/09/23 10:06:02;;;;;;;;;1.60;1.40;;;;;29.99;32.58;101357.16;5058959;28;45585;-41
2023/09/23 10:08:38;;;;;;;;;0.25;0.25;;;;;30.42;35.67;101377.25;5058995;28;45330;-44
2023/09/23 10:11:08;;;;;;;;;1.60;1.00;;;;;30.86;31.59;101368.78;5059070;28;45461;-43
2023/09/23 10:13:34;;;;;;;;;3.00;2.00;;;;;31.26;30.64;101373.59;5058783;28;45513;-49
2023/09/23 10:16:12;;;;;;;;;2.00;0.40;;;;;31.18;31.81;101376.03;5058843;28;45280;-45
2023/09/23 10:18:39;;;;;;;;;1.00;1.00;;;;;30.83;30.19;101385.78;5059015;28;45443;-40
2023/09/23 10:21:05;;;;;;;;;3.20;0.40;;;;;30.38;30.18;101378.06;5058711;28;45420;-47
2023/09/23 10:23:35;;;;;;;;;3.00;1.40;;;;;30.17;31.46;101379.81;5058672;28;45498;-41
2023/09/23 10:26:23;;;;;;;;;2.00;0.20;;;;;30.66;31.34;101387.84;5058439;28;45438;-39
2023/09/23 10:29:03;;;;;;;;;0.60;0.60;;;;;31.04;29.65;101382.03;5058603;28;45367;-45
2023/09/23 10:31:30;;;;;;;;;2.20;2.20;;;;;31.61;29.05;101391.34;5058049;28;45281;-40
2023/09/23 10:33:56;;;;;;;;;2.25;2.00;;;;;32.24;28.69;101391.16;5058153;28;46209;-46
2023/09/23 10:36:23;;;;;;;;;2.75;1.75;;;;;32.76;28.96;101390.00;5057925;28;45526;-42
2023/09/23 10:38:49;;;;;;;;;3.00;1.00;;;;;32.28;27.00;101393.06;5058744;28;45411;-40
2023/09/23 10:41:15;;;;;;;;;1.00;1.00;;;;;31.25;28.14;101380.19;5058987;28;45227;-47
2023/09/23 10:43:41;;;;;;;;;1.60;0.80;;;;;30.60;30.36;101408.16;5039304;28;46154;-44
2023/09/23 10:46:06;;;;;;;;;1.00;1.00;;;;;30.06;29.51;101404.41;5037788;28;45431;-44
2023/09/23 10:48:32;;;;;;;;;4.75;2.00;;;;;29.65;30.52;101413.31;5038443;28;45374;-41
2023/09/23 10:51:01;;;;;;;;;2.60;2.60;;;;;29.36;30.78;101413.50;5037522;28;45349;-42
2023/09/23 10:53:30;;;;;;;;;1.20;1.20;;;;;29.49;30.96;101410.38;5037119;28;47048;-42
2023/09/23 10:55:56;;;;;;;;;1.80;1.80;;;;;29.49;30.56;101415.03;5052408;28;45381;-43
2023/09/23 10:58:21;;;;;;;;;1.00;1.00;;;;;29.96;29.84;101398.84;5056436;28;45590;-39
2023/09/23 11:00:48;;;;;;;;;2.00;1.50;;;;;30.54;29.76;101405.34;5056628;28;45411;-40
2023/09/23 11:03:19;;;;;;;;;2.20;1.60;;;;;31.43;28.50;101420.16;5044070;28;46147;-43
2023/09/23 11:05:46;;;;;;;;;2.40;1.00;;;;;32.39;27.40;101415.13;5052280;28;45527;-45
2023/09/23 11:08:13;;;;;;;;;0.60;0.60;;;;;33.11;26.84;101402.84;5058106;28;45389;-38
2023/09/23 11:10:43;;;;;;;;;0.60;0.00;;;;;34.06;26.48;101414.78;5057916;28;45968;-39
2023/09/23 11:13:10;;;;;;;;;6.20;1.00;;;;;35.53;24.54;101404.09;5057731;28;46600;-42
2023/09/23 11:15:38;;;;;;;;;2.00;1.20;;;;;37.06;22.61;101415.34;5042610;28;45359;-41
2023/09/23 11:18:07;;;;;;;;;1.00;0.20;;;;;37.60;22.74;101421.13;5038043;28;45503;-44
2023/09/23 11:20:34;;;;;;;;;1.80;1.80;;;;;37.59;21.82;101425.03;5037803;28;45483;-45
2023/09/23 11:23:05;;;;;;;;;0.60;0.60;;;;;38.18;20.58;101417.53;5037246;28;46247;-40